Terminal Aerodrome Forecast
Issued by NWS

Current Version | Previous Version | Text Only | Print | Product List | Glossary On
Versions: 1 2 3 4 5 6 7 8 9 10 11 12 13 14 15 16 17 18 19 20 21 22 23 24 25 26 27 28 29 30 31 32
000
FTAK31 PANC 201740
TAFADU
TAF
PADU 201740Z 2018/2118 29010KT P6SM VCSH SCT030 OVC040
     FM210200 12010KT P6SM SCT040 BKN050
     FM211000 13016G26KT 6SM -RA BR OVC022=

USA.gov is the U.S. government's official web portal to all federal, state and local government web resources and services.